createdAt,value
2022-12-18T00:01:30.285Z,28.90
2022-12-18T00:03:58.363Z,27.88
2022-12-18T00:06:27.805Z,28.85
2022-12-18T00:08:56.952Z,29.60
2022-12-18T00:11:27.058Z,27.43
2022-12-18T00:13:57.472Z,27.80
2022-12-18T00:16:26.926Z,26.83
2022-12-18T00:19:01.065Z,28.73
2022-12-18T00:21:29.621Z,29.27
2022-12-18T00:23:57.544Z,29.27
2022-12-18T00:26:27.463Z,29.48
2022-12-18T00:28:56.541Z,30.20
2022-12-18T00:31:25.886Z,28.50
2022-12-18T00:33:57.306Z,31.58
2022-12-18T00:36:28.569Z,30.60
2022-12-18T00:38:57.787Z,29.57
2022-12-18T00:41:43.721Z,29.33
2022-12-18T00:44:13.681Z,28.73
2022-12-18T00:46:42.129Z,29.50
2022-12-18T00:49:14.608Z,27.27
2022-12-18T00:51:42.512Z,28.63
2022-12-18T00:54:10.701Z,28.48
2022-12-18T00:56:48.044Z,28.48
2022-12-18T00:59:16.601Z,26.87
2022-12-18T01:01:44.656Z,27.30
2022-12-18T01:04:13.796Z,29.13
2022-12-18T01:06:41.922Z,27.70
2022-12-18T01:09:09.614Z,26.73
2022-12-18T01:11:37.261Z,27.63
2022-12-18T01:14:04.901Z,28.23
2022-12-18T01:16:32.678Z,28.20
2022-12-18T01:19:00.379Z,28.27
2022-12-18T01:21:29.535Z,27.75
2022-12-18T01:23:58.839Z,29.13
2022-12-18T01:26:30.392Z,29.20
2022-12-18T01:28:58.482Z,30.33
2022-12-18T01:31:29.117Z,29.45
2022-12-18T01:33:58.388Z,28.83
2022-12-18T01:36:29.835Z,29.03
2022-12-18T01:38:58.413Z,28.70
2022-12-18T01:41:48.565Z,28.42
2022-12-18T01:44:49.596Z,27.58
2022-12-18T01:47:20.494Z,27.20
2022-12-18T01:49:48.449Z,27.75
2022-12-18T01:52:19.884Z,29.23
2022-12-18T01:54:49.412Z,29.13
2022-12-18T01:57:17.251Z,29.52
2022-12-18T01:59:48.830Z,29.65
2022-12-18T02:02:17.854Z,28.80
2022-12-18T02:04:49.357Z,29.50
2022-12-18T02:07:26.797Z,29.67
2022-12-18T02:10:02.156Z,28.90
2022-12-18T02:12:36.244Z,29.97
2022-12-18T02:15:11.680Z,29.30
2022-12-18T02:17:45.062Z,29.25
2022-12-18T02:20:18.896Z,29.48
2022-12-18T02:23:01.681Z,28.90
2022-12-18T02:25:59.803Z,29.45
2022-12-18T02:28:34.203Z,29.38
2022-12-18T02:31:06.577Z,29.88
2022-12-18T02:33:37.190Z,29.98
2022-12-18T02:36:05.997Z,31.00
2022-12-18T02:38:35.770Z,29.45
2022-12-18T02:41:05.264Z,31.00
2022-12-18T02:43:34.301Z,29.38
2022-12-18T02:46:22.985Z,29.52
2022-12-18T02:48:53.959Z,29.90
2022-12-18T02:51:31.122Z,30.95
2022-12-18T02:54:07.940Z,29.58
2022-12-18T02:56:40.884Z,30.03
2022-12-18T02:59:15.506Z,30.23
2022-12-18T03:01:51.236Z,30.33
2022-12-18T03:04:27.504Z,29.48
2022-12-18T03:06:58.414Z,26.98
2022-12-18T03:09:32.319Z,29.48
2022-12-18T03:12:23.774Z,28.52
2022-12-18T03:14:58.393Z,29.20
2022-12-18T03:17:29.117Z,28.05
2022-12-18T03:20:00.835Z,28.17
2022-12-18T03:22:31.741Z,29.45
2022-12-18T03:25:02.028Z,30.00
2022-12-18T03:27:33.316Z,29.65
2022-12-18T03:30:08.426Z,31.20
2022-12-18T03:32:41.865Z,28.63
2022-12-18T03:35:14.945Z,30.00
2022-12-18T03:37:42.677Z,30.15
2022-12-18T03:40:11.310Z,31.08
2022-12-18T03:42:47.118Z,30.33
2022-12-18T03:45:24.583Z,29.83
2022-12-18T03:48:01.589Z,31.50
2022-12-18T03:50:38.597Z,30.55
2022-12-18T03:53:17.406Z,29.93
2022-12-18T03:55:46.881Z,29.50
2022-12-18T03:58:18.195Z,28.63
2022-12-18T04:00:49.975Z,27.92
2022-12-18T04:03:25.454Z,29.35
2022-12-18T04:05:57.527Z,28.60
2022-12-18T04:08:26.672Z,27.67
2022-12-18T04:10:54.499Z,28.23
2022-12-18T04:13:25.975Z,28.63
2022-12-18T04:15:55.285Z,28.65
2022-12-18T04:18:22.961Z,27.75
2022-12-18T04:20:50.751Z,28.27
2022-12-18T04:23:18.394Z,28.73
2022-12-18T04:25:46.078Z,28.70
2022-12-18T04:28:13.777Z,28.23
2022-12-18T04:30:41.539Z,29.08
2022-12-18T04:33:12.072Z,29.60
2022-12-18T04:35:39.872Z,29.75
2022-12-18T04:38:07.816Z,28.73
2022-12-18T04:40:36.652Z,29.00
2022-12-18T04:43:04.738Z,27.80
2022-12-18T04:45:32.605Z,29.27
2022-12-18T04:48:00.282Z,29.40
2022-12-18T04:50:29.975Z,29.80
2022-12-18T04:52:58.574Z,29.73
2022-12-18T04:55:29.441Z,31.92
2022-12-18T04:57:57.181Z,30.95
2022-12-18T05:00:24.980Z,29.70
2022-12-18T05:02:52.873Z,30.58
2022-12-18T05:05:20.708Z,29.17
2022-12-18T05:07:49.694Z,30.50
2022-12-18T05:10:17.665Z,30.90
2022-12-18T05:15:44.523Z,31.63
2022-12-18T05:18:12.128Z,30.83
2022-12-18T05:20:39.771Z,30.97
2022-12-18T05:23:07.333Z,31.40
2022-12-18T05:25:34.936Z,30.58
2022-12-18T05:28:02.505Z,31.08
2022-12-18T05:30:30.090Z,32.47
2022-12-18T05:32:58.951Z,30.92
2022-12-18T05:35:26.553Z,30.42
2022-12-18T05:37:54.203Z,30.92
2022-12-18T05:40:21.764Z,31.67
2022-12-18T05:42:49.330Z,31.75
2022-12-18T05:45:16.895Z,31.70
2022-12-18T05:47:44.478Z,31.42
2022-12-18T05:50:13.384Z,30.88
2022-12-18T05:52:41.003Z,30.80
2022-12-18T05:55:09.460Z,31.38
2022-12-18T05:57:37.110Z,30.20
2022-12-18T06:00:05.444Z,31.40
2022-12-18T06:02:33.113Z,31.90
2022-12-18T06:05:00.786Z,31.80
2022-12-18T06:07:29.668Z,32.38
2022-12-18T06:09:57.221Z,31.17
2022-12-18T06:12:24.768Z,31.73
2022-12-18T06:14:52.412Z,29.63
2022-12-18T06:17:19.965Z,30.33
2022-12-18T06:19:47.529Z,30.77
2022-12-18T06:22:15.097Z,30.98
2022-12-18T06:24:43.988Z,30.73
2022-12-18T06:27:12.304Z,33.22
2022-12-18T06:29:39.814Z,32.65
2022-12-18T06:32:07.531Z,32.33
2022-12-18T06:34:35.099Z,31.33
2022-12-18T06:37:02.599Z,30.33
2022-12-18T06:39:30.404Z,31.25
2022-12-18T06:41:59.264Z,30.80
2022-12-18T06:44:26.866Z,30.70
2022-12-18T06:46:54.506Z,31.73
2022-12-18T06:49:25.036Z,32.15
2022-12-18T06:51:54.999Z,31.98
2022-12-18T06:54:22.658Z,31.70
2022-12-18T06:56:51.545Z,32.20
2022-12-18T06:59:20.622Z,31.58
2022-12-18T07:01:48.351Z,31.48
2022-12-18T07:04:16.069Z,31.27
2022-12-18T07:06:43.606Z,31.27
2022-12-18T07:09:11.151Z,31.27
2022-12-18T07:11:38.707Z,30.75
2022-12-18T07:14:06.351Z,31.48
2022-12-18T07:16:35.255Z,31.45
2022-12-18T07:19:02.799Z,32.95
2022-12-18T07:21:30.500Z,33.58
2022-12-18T07:23:58.254Z,32.75
2022-12-18T07:26:27.193Z,32.28
2022-12-18T07:28:58.332Z,31.08
2022-12-18T07:31:27.363Z,31.27
2022-12-18T07:33:57.257Z,31.95
2022-12-18T07:36:25.200Z,32.97
2022-12-18T07:38:53.704Z,33.08
2022-12-18T07:41:22.045Z,32.05
2022-12-18T07:43:49.920Z,32.58
2022-12-18T07:46:18.276Z,38.28
2022-12-18T07:48:50.062Z,33.87
2022-12-18T07:51:20.105Z,35.58
2022-12-18T07:53:49.618Z,33.40
2022-12-18T07:56:29.504Z,32.55
2022-12-18T07:58:59.127Z,31.17
2022-12-18T08:01:27.385Z,32.03
2022-12-18T08:03:55.104Z,31.55
2022-12-18T08:06:26.841Z,30.90
2022-12-18T08:08:55.298Z,31.80
2022-12-18T08:11:24.039Z,30.85
2022-12-18T08:13:51.891Z,30.60
2022-12-18T08:16:20.651Z,30.88
2022-12-18T08:18:48.702Z,29.48
2022-12-18T08:21:19.199Z,30.80
2022-12-18T08:23:51.539Z,33.30
2022-12-18T08:26:20.009Z,32.85
2022-12-18T08:28:48.797Z,31.48
2022-12-18T08:31:17.303Z,30.50
2022-12-18T08:33:45.042Z,30.40
2022-12-18T08:36:12.963Z,28.92
2022-12-18T08:38:40.922Z,29.85
2022-12-18T08:41:12.473Z,28.97
2022-12-18T08:43:57.994Z,30.40
2022-12-18T08:46:27.770Z,29.38
2022-12-18T08:48:56.508Z,29.15
2022-12-18T08:51:24.076Z,28.83
2022-12-18T08:53:51.738Z,30.77
2022-12-18T08:56:20.825Z,30.90
2022-12-18T08:58:48.524Z,30.02
2022-12-18T09:01:16.212Z,28.08
2022-12-18T09:03:44.403Z,29.98
2022-12-18T09:06:16.552Z,31.33
2022-12-18T09:08:44.566Z,30.50
2022-12-18T09:11:24.084Z,29.80
2022-12-18T09:13:52.644Z,30.02
2022-12-18T09:16:21.481Z,32.58
2022-12-18T09:18:50.141Z,31.35
2022-12-18T09:21:20.652Z,30.70
2022-12-18T09:23:51.461Z,31.63
2022-12-18T09:26:19.137Z,31.05
2022-12-18T09:28:48.057Z,31.77
2022-12-18T09:31:20.466Z,31.92
2022-12-18T09:33:48.107Z,32.63
2022-12-18T09:36:18.495Z,30.10
2022-12-18T09:38:46.158Z,31.57
2022-12-18T09:41:30.696Z,30.35
2022-12-18T09:44:04.173Z,29.42
2022-12-18T09:46:36.691Z,29.80
2022-12-18T09:49:09.466Z,30.08
2022-12-18T09:51:41.565Z,30.45
2022-12-18T09:54:14.922Z,29.52
2022-12-18T09:56:45.173Z,31.65
2022-12-18T09:59:23.187Z,30.42
2022-12-18T10:01:50.904Z,30.67
2022-12-18T10:04:18.658Z,31.02
2022-12-18T10:06:52.238Z,30.95
2022-12-18T10:09:31.716Z,29.83
2022-12-18T10:12:09.561Z,30.08
2022-12-18T10:14:48.614Z,30.48
2022-12-18T10:17:26.481Z,30.60
2022-12-18T10:19:58.359Z,29.55
2022-12-18T10:22:40.812Z,29.88
2022-12-18T10:25:19.599Z,28.90
2022-12-18T10:27:47.354Z,29.85
2022-12-18T10:30:18.904Z,29.75
2022-12-18T10:32:46.514Z,31.13
2022-12-18T10:35:20.404Z,30.70
2022-12-18T10:38:22.512Z,31.00
2022-12-18T10:40:53.492Z,30.88
2022-12-18T10:43:27.538Z,31.03
2022-12-18T10:46:16.514Z,29.75
2022-12-18T10:48:53.985Z,30.55
2022-12-18T10:51:24.278Z,30.65
2022-12-18T10:53:58.972Z,30.48
2022-12-18T10:56:29.072Z,29.65
2022-12-18T10:59:02.402Z,30.50
2022-12-18T11:01:46.813Z,31.73
2022-12-18T11:04:19.355Z,30.15
2022-12-18T11:06:59.761Z,29.75
2022-12-18T11:09:29.446Z,30.92
2022-12-18T11:12:00.064Z,32.53
2022-12-18T11:14:29.759Z,32.95
2022-12-18T11:19:55.454Z,30.92
2022-12-18T11:22:28.447Z,32.53
2022-12-18T11:27:53.158Z,31.48
2022-12-18T11:30:25.667Z,30.42
2022-12-18T11:32:59.660Z,29.75
2022-12-18T11:35:37.589Z,30.17
2022-12-18T11:38:23.774Z,30.15
2022-12-18T11:40:57.183Z,31.13
2022-12-18T11:43:29.869Z,31.38
2022-12-18T11:46:02.725Z,33.30
2022-12-18T11:48:36.342Z,32.72
2022-12-18T11:51:07.592Z,31.80
2022-12-18T11:53:38.969Z,30.10
2022-12-18T11:56:18.386Z,31.88
2022-12-18T11:58:49.524Z,32.25
2022-12-18T12:01:29.451Z,30.60
2022-12-18T12:04:28.458Z,31.25
2022-12-18T12:07:06.244Z,31.73
2022-12-18T12:09:43.086Z,31.58
2022-12-18T12:12:27.849Z,30.03
2022-12-18T12:15:04.453Z,31.23
2022-12-18T12:17:40.020Z,31.17
2022-12-18T12:20:18.794Z,32.00
2022-12-18T12:22:55.194Z,29.92
2022-12-18T12:25:40.609Z,30.67
2022-12-18T12:28:20.260Z,30.75
2022-12-18T12:30:59.106Z,31.10
2022-12-18T12:33:39.269Z,31.65
2022-12-18T12:36:17.996Z,32.25
2022-12-18T12:38:52.383Z,29.50
2022-12-18T12:41:41.993Z,31.65
2022-12-18T12:44:16.834Z,31.02
2022-12-18T12:46:45.885Z,30.05
2022-12-18T12:49:17.943Z,32.10
2022-12-18T12:51:55.431Z,31.67
2022-12-18T12:54:28.664Z,31.98
2022-12-18T12:57:04.230Z,33.40
2022-12-18T12:59:41.081Z,32.37
2022-12-18T13:02:23.933Z,32.95
2022-12-18T13:04:59.897Z,32.40
2022-12-18T13:07:36.078Z,30.23
2022-12-18T13:10:17.475Z,31.50
2022-12-18T13:13:00.233Z,31.75
2022-12-18T13:15:36.711Z,32.40
2022-12-18T13:18:23.543Z,31.23
2022-12-18T13:20:58.579Z,30.80
2022-12-18T13:23:37.322Z,30.70
2022-12-18T13:26:33.896Z,32.92
2022-12-18T13:29:05.074Z,33.33
2022-12-18T13:32:09.696Z,33.07
2022-12-18T13:34:38.420Z,32.20
2022-12-18T13:37:43.459Z,32.20
2022-12-18T13:40:59.229Z,32.53
2022-12-18T13:43:36.240Z,31.27
2022-12-18T13:46:07.414Z,30.25
2022-12-18T13:48:37.923Z,30.52
2022-12-18T13:51:08.327Z,32.22
2022-12-18T13:53:40.904Z,30.80
2022-12-18T13:56:09.466Z,38.70
2022-12-18T13:58:38.709Z,31.23
2022-12-18T14:01:06.817Z,31.02
2022-12-18T14:03:35.555Z,32.53
2022-12-18T14:06:09.025Z,30.83
2022-12-18T14:08:41.336Z,32.15
2022-12-18T14:11:22.115Z,29.70
2022-12-18T14:13:52.252Z,30.23
2022-12-18T14:16:20.232Z,30.38
2022-12-18T14:18:50.928Z,31.73
2022-12-18T14:21:27.969Z,36.35
2022-12-18T14:24:07.047Z,31.70
2022-12-18T14:26:35.212Z,28.92
2022-12-18T14:29:22.776Z,30.27
2022-12-18T14:32:06.944Z,29.40
2022-12-18T14:34:35.938Z,31.33
2022-12-18T14:37:03.578Z,28.77
2022-12-18T14:39:31.132Z,29.13
2022-12-18T14:41:58.719Z,29.52
2022-12-18T14:44:34.532Z,29.42
2022-12-18T14:47:06.983Z,31.23
2022-12-18T14:49:37.670Z,30.48
2022-12-18T14:52:07.562Z,29.13
2022-12-18T14:54:39.174Z,28.63
2022-12-18T14:57:18.403Z,29.83
2022-12-18T14:59:47.268Z,28.33
2022-12-18T15:02:22.922Z,29.58
2022-12-18T15:05:02.021Z,29.58
2022-12-18T15:07:41.585Z,29.97
2022-12-18T15:10:13.419Z,29.00
2022-12-18T15:12:43.406Z,30.73
2022-12-18T15:15:49.372Z,32.87
2022-12-18T15:18:20.901Z,30.90
2022-12-18T15:20:50.715Z,31.35
2022-12-18T15:23:23.580Z,33.00
2022-12-18T15:25:57.476Z,43.67
2022-12-18T15:28:27.221Z,38.95
2022-12-18T15:31:05.052Z,40.75
2022-12-18T15:33:35.560Z,35.25
2022-12-18T15:36:05.143Z,35.17
2022-12-18T15:38:33.382Z,40.37
2022-12-18T15:41:01.319Z,33.50
2022-12-18T15:43:37.759Z,27.98
2022-12-18T15:46:09.025Z,28.98
2022-12-18T15:48:40.637Z,29.17
2022-12-18T15:51:15.724Z,36.97
2022-12-18T15:53:44.028Z,32.30
2022-12-18T15:56:30.768Z,30.05
2022-12-18T15:58:58.349Z,28.55
2022-12-18T16:01:29.464Z,26.75
2022-12-18T16:03:57.953Z,26.98
2022-12-18T16:06:25.713Z,30.17
2022-12-18T16:08:53.239Z,29.30
2022-12-18T16:11:38.905Z,36.10
2022-12-18T16:14:18.834Z,31.75
2022-12-18T16:16:49.207Z,29.05
2022-12-18T16:19:17.052Z,27.92
2022-12-18T16:21:45.543Z,27.42
2022-12-18T16:24:17.160Z,33.80
2022-12-18T16:26:45.242Z,30.10
2022-12-18T16:29:12.905Z,28.08
2022-12-18T16:31:40.477Z,36.75
2022-12-18T16:34:22.745Z,31.33
2022-12-18T16:36:51.420Z,32.35
2022-12-18T16:39:19.318Z,39.65
2022-12-18T16:41:47.044Z,32.55
2022-12-18T16:44:15.231Z,30.05
2022-12-18T16:46:44.447Z,31.67
2022-12-18T16:49:12.065Z,31.27
2022-12-18T16:51:41.297Z,29.73
2022-12-18T16:54:11.016Z,29.17
2022-12-18T16:56:42.755Z,34.17
2022-12-18T16:59:13.132Z,37.15
2022-12-18T17:01:41.893Z,37.67
2022-12-18T17:04:10.274Z,38.35
2022-12-18T17:06:44.396Z,34.75
2022-12-18T17:09:14.739Z,46.28
2022-12-18T17:11:42.958Z,31.23
2022-12-18T17:14:18.768Z,33.95
2022-12-18T17:16:46.469Z,38.50
2022-12-18T17:19:17.407Z,33.63
2022-12-18T17:21:50.155Z,31.17
2022-12-18T17:24:18.724Z,33.17
2022-12-18T17:26:46.866Z,30.70
2022-12-18T17:29:18.264Z,29.37
2022-12-18T17:31:47.408Z,26.95
2022-12-18T17:34:15.590Z,27.20
2022-12-18T17:36:44.036Z,27.77
2022-12-18T17:39:19.070Z,29.00
2022-12-18T17:41:47.005Z,26.92
2022-12-18T17:44:14.604Z,29.77
2022-12-18T17:46:42.624Z,25.70
2022-12-18T17:49:11.235Z,28.42
2022-12-18T17:51:38.937Z,27.43
2022-12-18T17:54:06.681Z,27.45
2022-12-18T17:56:35.678Z,27.65
2022-12-18T17:59:03.646Z,28.73
2022-12-18T18:01:31.492Z,27.90
2022-12-18T18:04:00.297Z,28.98
2022-12-18T18:06:28.043Z,27.77
2022-12-18T18:08:55.663Z,27.83
2022-12-18T18:11:42.557Z,29.15
2022-12-18T18:14:16.951Z,28.45
2022-12-18T18:16:46.831Z,26.80
2022-12-18T18:19:17.309Z,27.23
2022-12-18T18:21:48.365Z,32.35
2022-12-18T18:24:18.543Z,31.73
2022-12-18T18:26:47.323Z,54.80
2022-12-18T18:29:19.071Z,30.60
2022-12-18T18:31:47.091Z,27.42
2022-12-18T18:34:16.145Z,30.58
2022-12-18T18:36:43.832Z,29.75
2022-12-18T18:39:11.449Z,29.08
2022-12-18T18:41:39.257Z,27.75
2022-12-18T18:44:06.857Z,27.42
2022-12-18T18:46:35.742Z,30.20
2022-12-18T18:49:03.328Z,38.03
2022-12-18T18:51:34.787Z,32.22
2022-12-18T18:54:03.183Z,27.45
2022-12-18T18:59:19.369Z,27.90
2022-12-18T19:01:52.673Z,26.20
2022-12-18T19:04:20.788Z,27.52
2022-12-18T19:06:49.332Z,27.48
2022-12-18T19:09:17.190Z,27.52
2022-12-18T19:12:02.297Z,27.85
2022-12-18T19:14:30.208Z,28.23
2022-12-18T19:17:00.422Z,28.73
2022-12-18T19:19:29.234Z,28.55
2022-12-18T19:21:57.460Z,28.63
2022-12-18T19:24:25.234Z,27.17
2022-12-18T19:26:56.836Z,27.00
2022-12-18T19:29:27.479Z,28.40
2022-12-18T19:31:55.962Z,27.80
2022-12-18T19:34:26.808Z,26.30
2022-12-18T19:36:59.718Z,26.73
2022-12-18T19:39:28.475Z,26.23
2022-12-18T19:41:56.517Z,27.30
2022-12-18T19:44:24.226Z,28.30
2022-12-18T19:46:52.796Z,25.73
2022-12-18T19:49:20.595Z,27.00
2022-12-18T19:51:53.320Z,26.42
2022-12-18T19:54:21.059Z,26.33
2022-12-18T19:56:48.861Z,27.45
2022-12-18T19:59:17.105Z,25.05
2022-12-18T20:01:45.021Z,26.60
2022-12-18T20:04:13.007Z,27.00
2022-12-18T20:06:48.756Z,25.73
2022-12-18T20:09:18.616Z,26.70
2022-12-18T20:11:47.457Z,27.10
2022-12-18T20:14:22.799Z,27.10
2022-12-18T20:16:51.494Z,27.02
2022-12-18T20:19:19.875Z,27.00
2022-12-18T20:21:49.162Z,28.83
2022-12-18T20:24:18.226Z,28.17
2022-12-18T20:26:45.991Z,28.30
2022-12-18T20:29:13.734Z,26.33
2022-12-18T20:31:42.071Z,27.88
2022-12-18T20:34:09.773Z,28.17
2022-12-18T20:36:38.739Z,27.70
2022-12-18T20:39:09.849Z,28.67
2022-12-18T20:41:40.339Z,28.65
2022-12-18T20:44:22.726Z,27.80
2022-12-18T20:46:53.581Z,27.83
2022-12-18T20:49:21.665Z,28.03
2022-12-18T20:51:52.219Z,27.23
2022-12-18T20:54:19.902Z,27.93
2022-12-18T20:56:48.792Z,29.17
2022-12-18T20:59:16.688Z,25.65
2022-12-18T21:01:48.742Z,27.53
2022-12-18T21:04:18.433Z,27.05
2022-12-18T21:06:50.939Z,27.70
2022-12-18T21:09:20.694Z,27.65
2022-12-18T21:12:07.466Z,28.48
2022-12-18T21:14:35.456Z,27.63
2022-12-18T21:17:03.087Z,27.85
2022-12-18T21:19:30.771Z,28.30
2022-12-18T21:21:58.799Z,27.80
2022-12-18T21:24:26.741Z,28.40
2022-12-18T21:27:00.241Z,27.47
2022-12-18T21:29:28.001Z,27.67
2022-12-18T21:31:56.119Z,27.48
2022-12-18T21:34:26.427Z,26.10
2022-12-18T21:36:54.820Z,27.10
2022-12-18T21:39:23.353Z,27.27
2022-12-18T21:42:09.495Z,27.63
2022-12-18T21:44:42.274Z,28.63
2022-12-18T21:47:21.570Z,27.30
2022-12-18T21:49:51.045Z,26.60
2022-12-18T21:52:18.831Z,29.20
2022-12-18T21:54:46.489Z,27.73
2022-12-18T21:57:14.311Z,27.27
2022-12-18T21:59:44.240Z,27.53
2022-12-18T22:02:15.135Z,26.75
2022-12-18T22:04:43.805Z,25.98
2022-12-18T22:07:12.040Z,27.48
2022-12-18T22:09:39.791Z,26.67
2022-12-18T22:12:08.893Z,26.15
2022-12-18T22:14:36.595Z,27.48
2022-12-18T22:17:05.523Z,26.77
2022-12-18T22:19:36.756Z,25.15
2022-12-18T22:22:10.353Z,26.43
2022-12-18T22:24:37.946Z,26.67
2022-12-18T22:27:05.484Z,26.15
2022-12-18T22:29:50.731Z,25.73
2022-12-18T22:32:29.426Z,25.53
2022-12-18T22:35:04.952Z,26.10
2022-12-18T22:37:34.782Z,26.73
2022-12-18T22:40:03.103Z,26.42
2022-12-18T22:42:32.513Z,26.50
2022-12-18T22:45:00.567Z,25.83
2022-12-18T22:47:30.613Z,27.37
2022-12-18T22:49:58.650Z,25.88
2022-12-18T22:52:26.686Z,25.85
2022-12-18T22:54:54.527Z,26.20
2022-12-18T22:57:22.547Z,26.13
2022-12-18T22:59:50.121Z,26.60
2022-12-18T23:02:18.878Z,26.42
2022-12-18T23:04:48.568Z,26.48
2022-12-18T23:07:16.868Z,26.02
2022-12-18T23:09:44.918Z,26.85
2022-12-18T23:12:17.025Z,27.45
2022-12-18T23:14:44.958Z,26.80
2022-12-18T23:17:12.524Z,26.67
2022-12-18T23:19:45.458Z,27.05
2022-12-18T23:22:17.682Z,27.48
2022-12-18T23:24:45.431Z,25.95
2022-12-18T23:27:12.979Z,25.83
2022-12-18T23:29:40.906Z,27.58
2022-12-18T23:32:09.070Z,26.13
2022-12-18T23:34:36.652Z,26.33
2022-12-18T23:37:04.553Z,25.70
2022-12-18T23:39:33.470Z,26.17
2022-12-18T23:42:01.549Z,26.20
2022-12-18T23:44:29.181Z,27.50
2022-12-18T23:46:56.896Z,25.83
2022-12-18T23:49:24.546Z,26.08
2022-12-18T23:51:54.729Z,26.93
2022-12-18T23:54:22.722Z,26.83
2022-12-18T23:57:02.547Z,25.73
2022-12-18T23:59:30.120Z,26.27
